Latest Weather Observations for Newcastle Nobbys

IDN60901

Issued at 1:01 pm EDT Thursday 23 January 2020 (issued every 10 minutes, with the page automatically refreshed every 10 minutes)

About weather observations | Map of Sydney area stations | Latest observations for Sydney area | Other Formats
Station Details ID: 061055 Name: NEWCASTLE NOBBYS SIGNAL STATION AWS Lat: -32.92 Lon: 151.80 Height: 33.0 m
Data from the previous 72 hours. | See also: Recent months at Newcastle Nobbys
Date/Time
EDT
Temp
°C
App
Temp
°C
Dew
Point
°C
Rel
Hum
%
Delta-T
°C
Wind Press
QNH
hPa
Press
MSL
hPa
Rain since
9am
mm
Dir  Spd
km/h
Gust
km/h
Spd
kts
Gust
kts
23/01:00pm 38.1 32.8 15.2 25 14.5 NW 37 57 20 31 - - 0.0
23/12:58pm 37.8 32.8 15.0 26 14.3 NW 35 57 19 31 - - 0.0
23/12:45pm 38.0 33.2 15.7 26 14.2 NNW 35 52 19 28 - - 0.0
23/12:40pm 37.4 33.1 15.8 27 13.7 NNW 33 52 18 28 - - 0.0
23/12:32pm 37.7 32.5 15.5 27 14.1 NW 37 57 20 31 - - 0.0
23/12:30pm 37.8 32.0 15.0 26 14.3 NW 39 57 21 31 - - 0.0
23/12:20pm 37.5 31.6 14.7 25 14.3 NW 39 57 21 31 - - 0.0
23/12:00pm 37.4 33.9 16.4 29 13.5 NW 30 52 16 28 - - 0.0
23/11:58am 37.3 34.9 17.3 30 13.0 NW 26 52 14 28 - - 0.0
23/11:46am 33.9 36.6 21.3 47 8.5 NE 9 24 5 13 - - 0.0
23/11:30am 28.9 31.0 20.9 62 5.3 E 11 17 6 9 - - 0.0
23/11:00am 33.8 35.8 19.1 42 9.7 NE 7 13 4 7 - - 0.0
23/10:30am 31.4 32.9 19.7 49 7.7 ENE 11 17 6 9 - - 0.0
23/10:00am 29.3 31.3 20.7 59 5.7 NE 11 15 6 8 - - 0.0
23/09:30am 27.4 29.1 20.2 65 4.7 NE 11 15 6 8 - - 0.0
23/09:00am 26.5 28.0 18.1 60 5.3 NE 7 13 4 7 - - 0.0
23/08:30am 26.9 28.1 18.2 59 5.5 NE 9 13 5 7 - - 0.0
23/08:00am 25.3 26.6 18.5 66 4.3 NNE 9 11 5 6 - - 0.0
23/07:30am 24.1 25.4 17.6 67 4.1 NW 7 13 4 7 - - 0.0
23/07:00am 23.7 22.6 17.4 68 3.9 NNW 19 20 10 11 - - 0.0
23/06:30am 23.3 21.9 18.0 72 3.3 NNW 22 26 12 14 - - 0.0
23/06:00am 23.3 24.4 18.8 76 2.9 NW 11 15 6 8 - - 0.0
23/05:30am 23.1 23.3 18.6 76 2.8 N 15 19 8 10 - - 0.0
23/05:00am 23.5 24.1 18.6 74 3.1 NNW 13 17 7 9 - - 0.0
23/04:30am 23.6 24.6 19.5 78 2.6 NNW 13 15 7 8 - - 0.0
23/04:00am 24.1 26.3 20.4 80 2.4 NNW 9 11 5 6 - - 0.0
23/03:30am 23.8 25.6 20.3 81 2.3 N 11 13 6 7 - - 0.0
23/03:00am 24.2 26.4 20.3 79 2.5 NNW 9 15 5 8 - - 0.0
23/02:30am 24.4 27.3 20.7 80 2.4 N 6 9 3 5 - - 0.0
23/02:00am 24.9 26.7 20.4 76 2.9 N 11 15 6 8 - - 0.0
23/01:30am 25.0 26.2 20.0 74 3.2 NNE 13 17 7 9 - - 0.0
23/01:00am 25.1 26.6 20.6 76 2.9 NNE 13 17 7 9 - - 0.0
23/12:30am 25.3 25.9 21.0 77 2.8 NE 19 24 10 13 - - 0.0
23/12:00am 25.3 27.5 20.3 74 3.3 ENE 9 15 5 8 - - 0.0
 
Date/Time
EDT
Temp
°C
App
Temp
°C
Dew
Point
°C
Rel
Hum
%
Delta-T
°C
Wind Press
QNH
hPa
Press
MSL
hPa
Rain since
9am
mm
Dir  Spd
km/h
Gust
km/h
Spd
kts
Gust
kts
22/11:30pm 25.7 27.7 19.1 67 4.2 ENE 7 13 4 7 - - 0.0
22/11:00pm 25.4 26.6 19.8 71 3.6 ENE 13 19 7 10 - - 0.0
22/10:30pm 26.0 24.8 20.1 70 3.8 NE 26 32 14 17 - - 0.0
22/10:00pm 26.0 26.9 21.9 78 2.7 NE 20 30 11 16 - - 0.0
22/09:30pm 26.1 27.2 22.4 80 2.5 NE 20 33 11 18 - - 0.0
22/09:00pm 26.1 27.0 22.6 81 2.4 NE 22 32 12 17 - - 0.0
22/08:30pm 26.3 27.3 22.8 81 2.4 NE 22 33 12 18 - - 0.0
22/08:00pm 26.5 27.5 22.8 80 2.5 NE 22 33 12 18 - - 0.0
22/07:30pm 26.7 26.9 22.8 79 2.6 NE 26 35 14 19 - - 0.0
22/07:00pm 26.9 27.0 21.9 74 3.4 NE 24 33 13 18 - - 0.0
22/06:30pm 26.1 26.5 23.8 87 1.6 ENE 28 35 15 19 - - 0.0
22/06:00pm 26.1 26.7 24.1 89 1.4 ENE 28 37 15 20 - - 0.0
22/05:30pm 26.3 28.1 24.2 88 1.4 ENE 22 32 12 17 - - 0.0
22/05:00pm 26.4 27.3 23.9 86 1.7 ENE 26 33 14 18 - - 0.0
22/04:30pm 26.5 28.4 23.8 85 1.9 E 20 26 11 14 - - 0.0
22/04:00pm 26.5 27.8 24.0 86 1.7 E 24 28 13 15 - - 0.0
22/03:30pm 26.2 27.4 23.9 87 1.6 E 24 28 13 15 - - 0.0
22/03:00pm 26.1 27.0 24.0 88 1.4 ESE 26 28 14 15 - - 0.0
22/02:30pm 26.1 27.4 24.0 88 1.4 ESE 24 28 13 15 - - 0.0
22/02:00pm 26.1 28.3 24.0 88 1.4 ESE 19 22 10 12 - - 0.0
22/01:30pm 26.4 28.8 23.7 85 1.9 E 17 19 9 10 - - 0.0
22/01:00pm 26.5 28.9 23.6 84 2.0 E 17 19 9 10 - - 0.0
22/12:30pm 26.4 28.5 23.1 82 2.2 E 17 19 9 10 - - 0.0
22/12:00pm 26.3 29.0 23.4 84 2.0 ESE 15 17 8 9 - - 0.0
22/11:30am 26.0 29.1 22.9 83 2.1 SE 11 13 6 7 - - 0.0
22/11:00am 26.5 30.1 23.0 81 2.4 SSE 9 9 5 5 - - 0.0
22/10:30am 25.8 29.7 22.9 84 2.0 S 7 9 4 5 - - 0.0
22/10:00am 25.8 29.3 22.9 84 2.0 S 9 9 5 5 - - 0.0
22/09:30am 25.3 28.2 22.4 84 1.9 S 11 11 6 6 - - 0.0
22/09:00am 24.8 27.6 22.3 86 1.7 S 11 15 6 8 - - 0.0
22/08:30am 24.7 28.1 22.0 85 1.8 S 7 9 4 5 - - 0.0
22/08:00am 24.6 28.2 22.3 87 1.5 S 7 9 4 5 - - 0.0
22/07:30am 23.9 27.6 22.3 91 1.1 S 6 7 3 4 - - 0.0
22/07:00am 23.6 27.3 22.2 92 0.9 SSE 6 9 3 5 - - 0.0
22/06:30am 23.6 27.9 21.9 90 1.1 E 2 4 1 2 - - 0.0
22/06:00am 23.7 27.3 22.0 90 1.1 E 6 7 3 4 - - 0.0
22/05:30am 23.6 26.9 21.9 90 1.1 E 7 9 4 5 - - 0.0
22/05:00am 23.7 27.3 22.0 90 1.1 E 6 7 3 4 - - 0.0
22/04:30am 23.7 27.0 21.8 89 1.3 E 7 9 4 5 - - 0.0
22/04:00am 23.6 26.5 21.7 89 1.3 E 9 11 5 6 - - 0.0
22/03:30am 23.7 26.2 21.8 89 1.3 E 11 13 6 7 - - 0.0
22/03:00am 23.7 26.6 21.8 89 1.3 E 9 13 5 7 - - 0.0
22/02:30am 23.8 26.0 21.9 89 1.3 E 13 15 7 8 - - 0.0
22/02:00am 23.9 26.4 21.8 88 1.4 E 11 13 6 7 - - 0.0
22/01:30am 24.0 26.5 21.7 87 1.5 E 11 13 6 7 - - 0.0
22/01:00am 24.0 25.6 21.5 86 1.7 ENE 15 19 8 10 - - 0.0
22/12:30am 24.0 25.1 21.3 85 1.8 ENE 17 24 9 13 - - 0.0
22/12:00am 24.1 25.8 21.6 86 1.7 ENE 15 20 8 11 - - 0.0
 
Date/Time
EDT
Temp
°C
App
Temp
°C
Dew
Point
°C
Rel
Hum
%
Delta-T
°C
Wind Press
QNH
hPa
Press
MSL
hPa
Rain since
9am
mm
Dir  Spd
km/h
Gust
km/h
Spd
kts
Gust
kts
21/11:30pm 24.0 26.0 21.5 86 1.7 ENE 13 19 7 10 - - 0.0
21/11:00pm 23.9 26.1 21.2 85 1.8 ENE 11 15 6 8 - - 0.0
21/10:30pm 23.9 26.1 21.2 85 1.8 NE 11 19 6 10 - - 0.0
21/10:00pm 24.0 25.7 20.9 83 2.0 ENE 13 17 7 9 - - 0.0
21/09:30pm 23.9 25.9 20.8 83 2.0 ENE 11 17 6 9 - - 0.0
21/09:00pm 23.9 25.3 20.4 81 2.3 ENE 13 17 7 9 - - 0.0
21/08:30pm 24.2 25.3 20.5 80 2.4 E 15 20 8 11 - - 0.0
21/08:00pm 24.4 24.6 20.1 77 2.8 E 19 24 10 13 - - 0.0
21/07:30pm 24.6 24.6 20.1 76 2.9 E 20 26 11 14 - - 0.0
21/07:00pm 24.7 23.6 19.5 73 3.3 ESE 24 30 13 16 - - 0.0
21/06:30pm 25.0 23.7 19.1 70 3.8 SE 24 30 13 16 - - 0.0
21/06:00pm 25.3 23.9 19.7 71 3.6 SE 26 33 14 18 - - 0.0
21/05:30pm 25.5 23.3 18.7 66 4.3 SE 28 33 15 18 - - 0.0
21/05:00pm 25.8 23.1 18.5 64 4.6 SSE 30 35 16 19 - - 0.0
21/04:30pm 25.9 23.4 18.8 65 4.5 SSE 30 35 16 19 - - 0.0
21/04:00pm 26.0 23.1 17.9 61 5.1 SSE 30 35 16 19 - - 0.0
21/03:30pm 26.5 24.5 18.4 61 5.2 SSE 26 32 14 17 - - 0.0
21/03:00pm 26.5 23.3 18.1 60 5.3 SSE 32 37 17 20 - - 0.0
21/02:30pm 27.0 23.7 18.0 58 5.7 SSE 32 39 17 21 - - 0.0
21/02:00pm 31.8 27.2 11.0 28 12.1 NW 26 41 14 22 - - 0.0
21/01:49pm 31.6 26.7 11.4 29 11.8 NNW 28 50 15 27 - - 0.0
21/01:30pm 31.6 26.6 10.9 28 12.0 NW 28 61 15 33 - - 0.0
21/01:06pm 30.8 25.1 11.2 30 11.3 NW 32 52 17 28 - - 0.0
21/01:00pm 31.1 25.4 11.0 29 11.6 NW 32 50 17 27 - - 0.0
21/12:30pm 30.3 24.0 9.8 28 11.6 NW 33 56 18 30 - - 0.0
21/12:11pm 30.0 23.3 9.5 28 11.5 NNW 35 59 19 32 - - 0.0
21/12:00pm 29.9 24.0 8.9 27 11.7 NW 30 41 16 22 - - 0.0
21/11:30am 29.6 24.1 9.2 28 11.4 NW 28 39 15 21 - - 0.0
21/11:00am 28.6 23.8 10.3 32 10.3 NNW 26 35 14 19 - - 0.0
21/10:30am 28.5 25.4 11.6 35 9.7 NNW 19 26 10 14 - - 0.0
21/10:00am 27.4 24.5 13.0 41 8.5 NNW 20 26 11 14 - - 0.0
21/09:30am 27.1 24.6 14.1 44 7.8 NW 20 28 11 15 - - 0.0
21/09:00am 26.2 23.3 14.0 47 7.2 NW 22 28 12 15 - - 1.6
21/08:30am 25.6 23.8 15.6 54 6.1 NW 19 24 10 13 - - 1.6
21/08:00am 23.3 21.5 15.4 61 4.7 WNW 19 22 10 12 - - 1.6
21/07:30am 22.1 21.6 17.9 77 2.6 WNW 17 19 9 10 - - 1.6
21/07:00am 21.4 21.2 17.6 79 2.3 WNW 15 20 8 11 - - 1.6
21/06:30am 20.6 20.2 18.0 85 1.6 NW 17 22 9 12 - - 1.6
21/06:00am 20.8 21.0 18.6 87 1.4 NNW 15 22 8 12 - - 1.6
21/05:30am 21.0 23.0 18.8 87 1.4 NW 6 7 3 4 - - 1.6
21/05:00am 21.6 24.5 18.2 81 2.1 CALM 0 2 0 1 - - 1.6
21/04:30am 22.0 24.1 18.2 79 2.4 W 4 7 2 4 - - 1.6
21/04:00am 21.9 22.3 18.9 83 1.9 W 15 19 8 10 - - 1.6
21/03:30am 21.8 23.3 19.0 84 1.8 WNW 9 13 5 7 - - 1.6
21/03:00am 21.8 23.5 19.4 86 1.5 WNW 9 11 5 6 - - 1.6
21/02:30am 22.1 23.5 19.5 85 1.7 WNW 11 17 6 9 - - 1.6
21/02:00am 22.5 25.0 20.2 87 1.5 WNW 7 9 4 5 - - 1.6
21/01:30am 22.5 25.3 20.4 88 1.4 NNW 6 6 3 3 - - 1.6
21/01:00am 22.7 25.3 20.4 87 1.5 NNW 7 11 4 6 - - 1.6
21/12:30am 23.2 25.6 20.0 82 2.1 NW 7 9 4 5 - - 1.6
21/12:00am 23.0 26.6 19.8 82 2.1 CALM 0 2 0 1 - - 1.6
 
Date/Time
EDT
Temp
°C
App
Temp
°C
Dew
Point
°C
Rel
Hum
%
Delta-T
°C
Wind Press
QNH
hPa
Press
MSL
hPa
Rain since
9am
mm
Dir  Spd
km/h
Gust
km/h
Spd
kts
Gust
kts
20/11:30pm 23.2 26.0 19.6 80 2.3 WSW 4 6 2 3 - - 1.6
20/11:00pm 23.2 24.8 20.0 82 2.1 SSW 11 17 6 9 - - 1.6
20/10:30pm 23.2 24.0 20.7 86 1.6 SSW 17 24 9 13 - - 1.6
20/10:00pm 23.1 21.1 20.8 87 1.5 S 32 37 17 20 - - 1.6
20/09:30pm 23.8 22.4 21.1 85 1.8 SSW 30 43 16 23 - - 1.6
20/09:03pm 25.8 24.5 20.6 73 3.4 SSW 28 54 15 29 - - 1.6
20/09:00pm 26.9 26.8 20.7 69 4.1 SW 22 35 12 19 - - 1.6
20/08:30pm 26.2 24.8 20.5 71 3.7 N 28 35 15 19 - - 1.6
20/08:00pm 26.5 24.5 20.8 71 3.8 NNE 32 39 17 21 - - 1.6
20/07:30pm 26.2 25.4 21.6 76 3.1 NE 28 43 15 23 - - 1.6
20/07:00pm 26.5 26.7 22.1 77 3.0 NE 24 35 13 19 - - 1.6
20/06:30pm 25.6 26.0 23.1 86 1.7 NE 26 33 14 18 - - 1.4
20/06:00pm 26.9 27.8 22.7 78 2.8 NE 22 37 12 20 - - 0.4
20/05:30pm 27.7 26.7 20.5 65 4.7 NE 26 39 14 21 - - 0.4
20/05:00pm 27.3 27.1 20.6 67 4.4 NE 22 32 12 17 - - 0.4
20/04:30pm 27.3 28.2 21.6 71 3.8 NE 19 28 10 15 - - 0.4
20/04:00pm 27.4 28.8 22.8 76 3.1 ENE 20 32 11 17 - - 0.4
20/03:30pm 25.6 26.3 21.5 78 2.7 NNE 20 24 11 13 - - 0.4
20/03:00pm 25.1 25.9 23.2 89 1.3 ENE 24 32 13 17 - - 0.0
20/02:30pm 25.5 27.5 23.6 89 1.3 E 19 24 10 13 - - 0.0
20/02:00pm 24.7 26.1 23.5 93 0.8 E 22 26 12 14 - - 0.0
20/01:30pm 24.8 26.2 22.9 89 1.3 E 20 24 11 13 - - 0.0

Latest Capital City Observations: Canberra | Sydney | Melbourne | Brisbane | Adelaide | Perth | Hobart | Darwin

Other formats

Comma delimited format used in spreadsheet applications
http://www.bom.gov.au/fwo/IDN60901/IDN60901.94774.axf

JavaScript Object Notation format (JSON) in row-major order
http://www.bom.gov.au/fwo/IDN60901/IDN60901.94774.json

Data quality

Most of these data are generated automatically and are frequently updated. Quality checks on data are not normally performed. It is possible for incorrect values to appear. Refer to information at About Latest Weather Observations and please check the disclaimer before using these data.